createdAt,value
2023-04-16T00:04:00.888Z,8.2
2023-04-16T00:08:36.980Z,8.1
2023-04-16T00:13:43.370Z,9.5
2023-04-16T00:19:01.448Z,9.6
2023-04-16T00:24:06.393Z,10.0
2023-04-16T00:29:03.773Z,9.1
2023-04-16T00:34:20.177Z,11.0
2023-04-16T00:39:26.528Z,10.0
2023-04-16T00:44:32.939Z,12.6
2023-04-16T00:50:03.414Z,12.1
2023-04-16T00:54:35.731Z,9.5
2023-04-16T00:59:42.095Z,14.6
2023-04-16T01:05:18.579Z,15.6
2023-04-16T01:09:54.890Z,14.7
2023-04-16T01:15:11.309Z,12.5
2023-04-16T01:20:17.691Z,8.9
2023-04-16T01:25:24.184Z,13.6
2023-04-16T01:31:18.251Z,11.4
2023-04-16T01:35:40.503Z,11.3
2023-04-16T01:40:46.905Z,12.5
2023-04-16T01:46:31.415Z,12.3
2023-04-16T01:51:23.722Z,12.5
2023-04-16T01:56:06.074Z,14.1
2023-04-16T02:01:12.487Z,14.4
2023-04-16T02:06:18.835Z,14.0
2023-04-16T02:11:25.227Z,11.6
2023-04-16T02:16:31.616Z,13.3
2023-04-16T02:21:27.982Z,11.4
2023-04-16T02:26:44.359Z,16.0
2023-04-16T02:32:26.408Z,14.4
2023-04-16T02:36:58.800Z,11.8
2023-04-16T02:42:05.242Z,13.5
2023-04-16T02:47:11.582Z,13.7
2023-04-16T02:52:07.931Z,14.1
2023-04-16T02:57:24.349Z,11.0
2023-04-16T03:02:31.003Z,11.3
2023-04-16T03:07:37.469Z,13.5
2023-04-16T03:12:43.876Z,12.6
2023-04-16T03:18:10.238Z,12.3
2023-04-16T03:23:00.596Z,13.9
2023-04-16T03:27:54.210Z,14.8
2023-04-16T03:33:10.595Z,15.1
2023-04-16T03:38:41.127Z,14.0
2023-04-16T03:43:23.474Z,16.6
2023-04-16T03:48:29.906Z,14.3
2023-04-16T03:53:59.491Z,13.8
2023-04-16T03:58:45.841Z,15.1
2023-04-16T04:04:29.445Z,16.1
2023-04-16T04:09:40.831Z,14.6
2023-04-16T04:15:07.305Z,15.4
2023-04-16T04:20:00.556Z,13.9
2023-04-16T04:25:30.106Z,16.2
2023-04-16T04:31:31.620Z,13.8
2023-04-16T04:35:43.848Z,15.8
2023-04-16T04:40:50.351Z,14.8
2023-04-16T04:45:56.809Z,14.7
2023-04-16T04:51:07.187Z,14.6
2023-04-16T04:56:31.795Z,15.2
2023-04-16T05:01:08.221Z,13.8
2023-04-16T05:06:43.678Z,17.0
2023-04-16T05:11:55.075Z,13.9
2023-04-16T05:16:51.465Z,13.1
2023-04-16T05:21:43.825Z,16.0
2023-04-16T05:26:54.236Z,16.7
2023-04-16T05:31:46.576Z,15.7
2023-04-16T05:37:03.039Z,13.0
2023-04-16T05:42:09.462Z,13.4
2023-04-16T05:47:15.917Z,12.2
2023-04-16T05:52:22.293Z,16.6
2023-04-16T05:57:52.740Z,13.1
2023-04-16T06:02:39.192Z,12.8
2023-04-16T06:07:55.478Z,12.3
2023-04-16T06:12:47.861Z,12.6
2023-04-16T06:17:54.266Z,14.4
2023-04-16T06:23:04.648Z,13.6
2023-04-16T06:28:06.994Z,13.2
2023-04-16T06:33:13.386Z,12.7
2023-04-16T06:38:19.732Z,16.5
2023-04-16T06:43:26.116Z,12.9
2023-04-16T06:48:32.510Z,11.6
2023-04-16T06:53:38.872Z,13.0
2023-04-16T06:58:45.275Z,15.2
2023-04-16T07:03:41.893Z,13.7
2023-04-16T07:08:57.263Z,14.2
2023-04-16T07:14:04.653Z,12.9
2023-04-16T07:19:15.089Z,14.1
2023-04-16T07:24:07.402Z,13.4
2023-04-16T07:29:22.797Z,15.0
2023-04-16T07:34:30.234Z,17.3
2023-04-16T07:39:26.773Z,15.0
2023-04-16T07:44:47.183Z,14.7
2023-04-16T07:49:39.561Z,13.8
2023-04-16T07:54:44.911Z,12.8
2023-04-16T08:00:02.340Z,16.5
2023-04-16T08:05:08.949Z,15.4
2023-04-16T08:10:15.312Z,15.2
2023-04-16T08:15:25.707Z,15.5
2023-04-16T08:20:28.109Z,14.6
2023-04-16T08:25:24.562Z,15.4
2023-04-16T08:30:40.969Z,11.9
2023-04-16T08:35:47.364Z,15.6
2023-04-16T08:40:53.822Z,14.6
2023-04-16T08:46:00.323Z,13.8
2023-04-16T08:51:10.729Z,13.1
2023-04-16T08:56:13.086Z,14.8
2023-04-16T09:01:19.489Z,11.4
2023-04-16T09:06:40.007Z,15.6
2023-04-16T09:11:39.904Z,10.8
2023-04-16T09:16:42.300Z,9.0
2023-04-16T09:21:38.661Z,11.4
2023-04-16T09:27:09.102Z,11.5
2023-04-16T09:32:25.493Z,9.3
2023-04-16T09:37:07.805Z,13.5
2023-04-16T09:42:34.285Z,13.1
2023-04-16T09:47:10.710Z,11.0
2023-04-16T09:52:28.670Z,9.9
2023-04-16T09:57:59.117Z,10.8
2023-04-16T10:02:41.728Z,6.0
2023-04-16T10:07:47.803Z,9.3
2023-04-16T10:12:54.347Z,9.7
2023-04-16T10:18:00.778Z,9.3
2023-04-16T10:23:07.119Z,7.1
2023-04-16T10:29:25.665Z,9.4
2023-04-16T10:33:41.547Z,8.4
2023-04-16T10:39:13.084Z,8.4
2023-04-16T10:43:37.918Z,9.0
2023-04-16T10:49:05.519Z,9.3
2023-04-16T10:53:51.822Z,8.1
2023-04-16T10:58:58.222Z,8.9
2023-04-16T11:04:28.807Z,9.0
2023-04-16T11:09:11.158Z,6.8
2023-04-16T11:14:17.464Z,7.0
2023-04-16T11:19:47.931Z,7.5
2023-04-16T11:24:34.234Z,9.2
2023-04-16T11:29:40.636Z,6.1
2023-04-16T11:34:43.049Z,9.4
2023-04-16T11:40:03.555Z,10.3
2023-04-16T11:44:55.883Z,8.6
2023-04-16T11:50:02.319Z,9.6
2023-04-16T11:55:22.707Z,8.0
2023-04-16T12:00:15.083Z,8.8
2023-04-16T12:05:21.429Z,7.6
2023-04-16T12:10:27.932Z,8.3
2023-04-16T12:15:34.300Z,8.9
2023-04-16T12:20:40.674Z,8.0
2023-04-16T12:25:47.083Z,8.3
2023-04-16T12:30:53.471Z,8.4
2023-04-16T12:35:59.850Z,9.7
2023-04-16T12:41:47.874Z,9.6
2023-04-16T12:46:16.305Z,9.0
2023-04-16T12:51:22.670Z,7.4
2023-04-16T12:56:29.053Z,8.7
2023-04-16T13:01:35.507Z,9.2
2023-04-16T13:06:41.815Z,8.3
2023-04-16T13:11:48.219Z,11.8
2023-04-16T13:16:54.883Z,10.5
2023-04-16T13:22:00.128Z,8.1
2023-04-16T13:27:07.476Z,10.9
2023-04-16T13:32:13.983Z,9.1
2023-04-16T13:37:20.256Z,9.7
2023-04-16T13:42:16.631Z,10.0
2023-04-16T13:47:33.071Z,10.4
2023-04-16T13:52:39.632Z,13.2
2023-04-16T13:57:46.018Z,12.5
2023-04-16T14:02:52.622Z,11.4
2023-04-16T14:07:58.757Z,9.4
2023-04-16T14:13:25.169Z,7.6
2023-04-16T14:18:11.530Z,8.2
2023-04-16T14:23:21.450Z,7.6
2023-04-16T14:28:17.811Z,7.5
2023-04-16T14:33:34.237Z,7.2
2023-04-16T14:38:44.597Z,7.6
2023-04-16T14:43:39.233Z,9.4
2023-04-16T14:48:53.423Z,7.7
2023-04-16T14:53:59.772Z,7.2
2023-04-16T14:59:06.283Z,6.8
2023-04-16T15:04:12.757Z,7.0
2023-04-16T15:09:19.053Z,6.7
2023-04-16T15:14:25.444Z,8.4
2023-04-16T15:19:31.847Z,7.1
2023-04-16T15:24:38.220Z,6.0
2023-04-16T15:29:44.716Z,7.7
2023-04-16T15:34:51.131Z,6.0
2023-04-16T15:40:17.567Z,6.8
2023-04-16T15:45:03.983Z,8.5
2023-04-16T15:55:16.326Z,5.7
2023-04-16T16:00:13.835Z,7.2
2023-04-16T16:05:30.142Z,8.4
2023-04-16T16:10:36.569Z,6.9
2023-04-16T16:15:42.975Z,6.1
2023-04-16T16:20:49.329Z,5.3
2023-04-16T16:25:55.724Z,7.0
2023-04-16T16:31:02.242Z,5.7
2023-04-16T16:36:08.509Z,7.5
2023-04-16T16:41:18.933Z,4.8
2023-04-16T16:46:21.301Z,5.8
2023-04-16T16:51:27.691Z,9.3
2023-04-16T16:56:38.102Z,6.6
2023-04-16T17:01:40.483Z,6.6
2023-04-16T17:06:46.986Z,7.0
2023-04-16T17:11:53.286Z,5.9
2023-04-16T17:17:19.817Z,9.0
2023-04-16T17:22:06.113Z,8.2
2023-04-16T17:27:12.624Z,8.1
2023-04-16T17:32:20.756Z,6.8
2023-04-16T17:37:26.960Z,6.9
2023-04-16T17:42:23.413Z,8.7
2023-04-16T17:47:59.845Z,9.8
2023-04-16T17:52:46.118Z,8.8
2023-04-16T17:57:52.523Z,12.4
2023-04-16T18:02:59.129Z,9.4
2023-04-16T18:07:55.285Z,10.5
2023-04-16T18:13:11.867Z,10.0
2023-04-16T18:18:18.301Z,8.6
2023-04-16T18:23:24.716Z,8.3
2023-04-16T18:28:31.139Z,9.4
2023-04-16T18:33:49.969Z,10.7
2023-04-16T18:38:56.921Z,9.4
2023-04-16T18:44:24.380Z,9.2
2023-04-16T18:48:56.815Z,9.4
2023-04-16T18:54:23.380Z,7.8
2023-04-16T18:58:59.682Z,9.0
2023-04-16T19:04:16.174Z,10.9
2023-04-16T19:09:12.646Z,8.4
2023-04-16T19:14:42.866Z,10.8
2023-04-16T19:19:35.251Z,8.9
2023-04-16T19:24:41.870Z,10.0
2023-04-16T19:34:55.227Z,10.3
2023-04-16T19:40:02.565Z,8.5
2023-04-16T19:45:08.966Z,10.0
2023-04-16T19:50:15.377Z,10.0
2023-04-16T19:55:21.887Z,10.4
2023-04-16T20:01:19.461Z,9.4
2023-04-16T20:05:57.790Z,8.6
2023-04-16T20:10:34.112Z,9.4
2023-04-16T20:15:50.576Z,9.8
2023-04-16T20:21:17.023Z,8.7
2023-04-16T20:26:27.473Z,8.2
2023-04-16T20:31:09.986Z,8.4
2023-04-16T20:36:16.217Z,9.7
2023-04-16T20:41:22.679Z,9.8
2023-04-16T20:46:29.080Z,10.1
2023-04-16T20:51:37.919Z,9.6
2023-04-16T20:56:41.777Z,10.8
2023-04-16T21:01:48.199Z,9.2
2023-04-16T21:06:54.518Z,10.5
2023-04-16T21:12:00.930Z,8.9
2023-04-16T21:17:07.295Z,10.1
2023-04-16T21:22:13.681Z,12.2
2023-04-16T21:27:44.125Z,9.3
2023-04-16T21:32:26.439Z,10.8
2023-04-16T21:37:32.804Z,10.1
2023-04-16T21:42:39.193Z,12.2
2023-04-16T21:47:45.615Z,9.2
2023-04-16T21:52:41.936Z,10.9
2023-04-16T21:58:17.530Z,10.4
2023-04-16T22:03:05.721Z,11.4
2023-04-16T22:08:23.422Z,12.0
2023-04-16T22:13:18.354Z,12.3
2023-04-16T22:18:24.790Z,11.3
2023-04-16T22:23:31.230Z,13.1
2023-04-16T22:28:37.632Z,13.2
2023-04-16T22:33:44.032Z,11.6
2023-04-16T22:38:50.385Z,13.8
2023-04-16T22:44:00.816Z,11.9
2023-04-16T22:48:53.163Z,13.2
2023-04-16T22:53:59.516Z,14.5
2023-04-16T22:59:16.058Z,11.5
2023-04-16T23:04:12.600Z,12.6
2023-04-16T23:09:28.906Z,14.1
2023-04-16T23:14:35.305Z,16.0
2023-04-16T23:19:41.723Z,15.0
2023-04-16T23:24:38.051Z,15.8
2023-04-16T23:29:54.560Z,15.3
2023-04-16T23:35:01.073Z,12.4
2023-04-16T23:40:07.414Z,16.0
2023-04-16T23:45:37.434Z,14.4
2023-04-16T23:50:23.787Z,14.7
2023-04-16T23:55:30.135Z,14.4
